sensor_id;sensor_type;location;lat;lon;timestamp;pressure;altitude;pressure_sealevel;temperature;humidity
6435;BME280;3250;42.694;23.278;2023-07-16T00:00:06;95046.25;;;25.01;81.41
6435;BME280;3250;42.694;23.278;2023-07-16T00:02:37;95058.22;;;25.09;81.93
6435;BME280;3250;42.694;23.278;2023-07-16T00:05:03;95057.00;;;25.01;82.09
6435;BME280;3250;42.694;23.278;2023-07-16T00:07:29;95052.66;;;25.05;81.17
6435;BME280;3250;42.694;23.278;2023-07-16T00:09:54;95035.34;;;24.93;81.11
6435;BME280;3250;42.694;23.278;2023-07-16T00:12:19;95057.94;;;25.10;81.28
6435;BME280;3250;42.694;23.278;2023-07-16T00:14:45;95049.94;;;25.05;81.22
6435;BME280;3250;42.694;23.278;2023-07-16T00:17:10;95057.94;;;25.10;81.19
6435;BME280;3250;42.694;23.278;2023-07-16T00:19:36;95040.38;;;24.99;81.02
6435;BME280;3250;42.694;23.278;2023-07-16T00:22:02;95046.16;;;25.06;81.02
6435;BME280;3250;42.694;23.278;2023-07-16T00:24:27;95054.53;;;25.05;80.72
6435;BME280;3250;42.694;23.278;2023-07-16T00:26:53;95036.78;;;24.85;81.29
6435;BME280;3250;42.694;23.278;2023-07-16T00:29:21;95039.59;;;24.80;82.19
6435;BME280;3250;42.694;23.278;2023-07-16T00:31:46;95056.09;;;24.92;81.83
6435;BME280;3250;42.694;23.278;2023-07-16T00:34:12;95054.13;;;24.98;81.12
6435;BME280;3250;42.694;23.278;2023-07-16T00:36:38;95046.13;;;24.93;81.18
6435;BME280;3250;42.694;23.278;2023-07-16T00:39:03;95052.03;;;24.95;81.37
6435;BME280;3250;42.694;23.278;2023-07-16T00:41:29;95042.69;;;24.87;80.99
6435;BME280;3250;42.694;23.278;2023-07-16T00:43:54;95019.81;;;24.71;81.23
6435;BME280;3250;42.694;23.278;2023-07-16T00:46:20;95037.28;;;24.73;81.59
6435;BME280;3250;42.694;23.278;2023-07-16T00:48:45;95049.94;;;24.73;82.12
6435;BME280;3250;42.694;23.278;2023-07-16T00:51:11;95042.16;;;24.71;81.47
6435;BME280;3250;42.694;23.278;2023-07-16T00:53:38;95048.81;;;24.74;81.82
6435;BME280;3250;42.694;23.278;2023-07-16T00:56:04;95051.22;;;24.75;82.06
6435;BME280;3250;42.694;23.278;2023-07-16T00:58:30;95039.06;;;24.64;82.11
6435;BME280;3250;42.694;23.278;2023-07-16T01:00:55;95050.81;;;24.68;82.31
6435;BME280;3250;42.694;23.278;2023-07-16T01:03:23;95044.44;;;24.64;82.04
6435;BME280;3250;42.694;23.278;2023-07-16T01:05:54;95033.81;;;24.54;82.31
6435;BME280;3250;42.694;23.278;2023-07-16T01:08:32;95042.31;;;24.61;82.16
6435;BME280;3250;42.694;23.278;2023-07-16T01:11:00;95042.59;;;24.60;82.32
6435;BME280;3250;42.694;23.278;2023-07-16T01:13:26;95042.53;;;24.65;82.56
6435;BME280;3250;42.694;23.278;2023-07-16T01:15:53;95034.03;;;24.58;79.40
6435;BME280;3250;42.694;23.278;2023-07-16T01:18:19;95044.13;;;24.66;80.15
6435;BME280;3250;42.694;23.278;2023-07-16T01:20:44;95050.75;;;24.73;78.75
6435;BME280;3250;42.694;23.278;2023-07-16T01:26:06;95040.16;;;24.77;79.03
6435;BME280;3250;42.694;23.278;2023-07-16T01:31:01;95053.19;;;24.89;78.10
6435;BME280;3250;42.694;23.278;2023-07-16T01:33:27;95049.41;;;24.90;78.30
6435;BME280;3250;42.694;23.278;2023-07-16T01:35:53;95032.59;;;24.79;78.28
6435;BME280;3250;42.694;23.278;2023-07-16T01:38:19;95052.88;;;24.90;76.27
6435;BME280;3250;42.694;23.278;2023-07-16T01:40:46;95036.28;;;24.83;76.92
6435;BME280;3250;42.694;23.278;2023-07-16T01:43:12;95056.59;;;24.94;77.57
6435;BME280;3250;42.694;23.278;2023-07-16T01:45:38;95035.00;;;24.80;78.11
6435;BME280;3250;42.694;23.278;2023-07-16T01:48:14;95054.19;;;24.93;77.68
6435;BME280;3250;42.694;23.278;2023-07-16T01:50:41;95057.66;;;24.79;76.68
6435;BME280;3250;42.694;23.278;2023-07-16T01:53:07;95056.91;;;24.74;78.12
6435;BME280;3250;42.694;23.278;2023-07-16T01:55:32;95055.91;;;24.70;77.03
6435;BME280;3250;42.694;23.278;2023-07-16T01:57:58;95046.75;;;24.71;78.43
6435;BME280;3250;42.694;23.278;2023-07-16T02:00:23;95065.22;;;24.77;78.52
6435;BME280;3250;42.694;23.278;2023-07-16T02:02:49;95053.13;;;24.75;77.10
6435;BME280;3250;42.694;23.278;2023-07-16T02:05:14;95066.22;;;24.81;76.32
6435;BME280;3250;42.694;23.278;2023-07-16T02:07:40;95062.75;;;24.81;76.03
6435;BME280;3250;42.694;23.278;2023-07-16T02:10:06;95049.94;;;24.73;75.30
6435;BME280;3250;42.694;23.278;2023-07-16T02:12:31;95053.94;;;24.75;75.68
6435;BME280;3250;42.694;23.278;2023-07-16T02:14:57;95053.63;;;24.77;75.41
6435;BME280;3250;42.694;23.278;2023-07-16T02:17:22;95064.34;;;24.82;74.70
6435;BME280;3250;42.694;23.278;2023-07-16T02:19:48;95028.75;;;24.66;74.72
6435;BME280;3250;42.694;23.278;2023-07-16T02:22:13;95045.03;;;24.75;74.22
6435;BME280;3250;42.694;23.278;2023-07-16T02:24:39;95058.34;;;24.85;73.82
6435;BME280;3250;42.694;23.278;2023-07-16T02:27:04;95046.75;;;24.71;74.00
6435;BME280;3250;42.694;23.278;2023-07-16T02:29:31;95046.81;;;24.66;74.37
6435;BME280;3250;42.694;23.278;2023-07-16T02:31:57;95070.38;;;24.74;74.61
6435;BME280;3250;42.694;23.278;2023-07-16T02:34:22;95047.41;;;24.63;73.78
6435;BME280;3250;42.694;23.278;2023-07-16T02:36:47;95069.78;;;24.77;74.56
6435;BME280;3250;42.694;23.278;2023-07-16T02:39:13;95065.91;;;24.83;74.11
6435;BME280;3250;42.694;23.278;2023-07-16T02:41:38;95055.81;;;24.75;73.72
6435;BME280;3250;42.694;23.278;2023-07-16T02:44:05;95073.63;;;24.90;73.60
6435;BME280;3250;42.694;23.278;2023-07-16T02:46:30;95069.06;;;24.90;73.41
6435;BME280;3250;42.694;23.278;2023-07-16T02:48:56;95061.84;;;24.86;73.18
6435;BME280;3250;42.694;23.278;2023-07-16T02:51:21;95072.03;;;24.89;73.52
6435;BME280;3250;42.694;23.278;2023-07-16T02:53:47;95068.59;;;24.83;73.24
6435;BME280;3250;42.694;23.278;2023-07-16T02:56:12;95060.03;;;24.81;73.29
6435;BME280;3250;42.694;23.278;2023-07-16T02:58:38;95041.09;;;24.54;73.43
6435;BME280;3250;42.694;23.278;2023-07-16T03:01:03;95067.47;;;24.70;73.81
6435;BME280;3250;42.694;23.278;2023-07-16T03:03:29;95077.59;;;24.78;73.54
6435;BME280;3250;42.694;23.278;2023-07-16T03:05:54;95076.38;;;24.71;73.13
6435;BME280;3250;42.694;23.278;2023-07-16T03:08:20;95057.44;;;24.57;74.05
6435;BME280;3250;42.694;23.278;2023-07-16T03:10:45;95074.75;;;24.70;73.70
6435;BME280;3250;42.694;23.278;2023-07-16T03:13:11;95070.75;;;24.67;73.17
6435;BME280;3250;42.694;23.278;2023-07-16T03:15:36;95076.91;;;24.54;73.58
6435;BME280;3250;42.694;23.278;2023-07-16T03:18:03;95076.69;;;24.51;73.83
6435;BME280;3250;42.694;23.278;2023-07-16T03:20:28;95057.31;;;24.49;73.27
6435;BME280;3250;42.694;23.278;2023-07-16T03:22:54;95062.28;;;24.41;73.99
6435;BME280;3250;42.694;23.278;2023-07-16T03:25:19;95079.78;;;24.58;73.96
6435;BME280;3250;42.694;23.278;2023-07-16T03:27:44;95077.75;;;24.68;73.02
6435;BME280;3250;42.694;23.278;2023-07-16T03:30:10;95087.06;;;24.57;73.37
6435;BME280;3250;42.694;23.278;2023-07-16T03:32:35;95084.69;;;24.56;73.66
6435;BME280;3250;42.694;23.278;2023-07-16T03:35:01;95065.91;;;24.51;73.44
6435;BME280;3250;42.694;23.278;2023-07-16T03:37:26;95071.72;;;24.58;73.16
6435;BME280;3250;42.694;23.278;2023-07-16T03:39:51;95088.94;;;24.75;73.28
6435;BME280;3250;42.694;23.278;2023-07-16T03:42:17;95097.53;;;24.77;73.10
6435;BME280;3250;42.694;23.278;2023-07-16T03:44:43;95080.38;;;24.73;72.89
6435;BME280;3250;42.694;23.278;2023-07-16T03:47:08;95090.59;;;24.90;72.61
6435;BME280;3250;42.694;23.278;2023-07-16T03:49:34;95098.44;;;25.05;72.46
6435;BME280;3250;42.694;23.278;2023-07-16T03:51:59;95106.25;;;25.21;72.75
6435;BME280;3250;42.694;23.278;2023-07-16T03:54:24;95078.22;;;25.22;72.24
6435;BME280;3250;42.694;23.278;2023-07-16T03:56:50;95046.47;;;25.18;71.94
6435;BME280;3250;42.694;23.278;2023-07-16T03:59:15;95100.53;;;25.54;71.08
6435;BME280;3250;42.694;23.278;2023-07-16T04:01:40;95101.75;;;25.62;70.33
6435;BME280;3250;42.694;23.278;2023-07-16T04:04:06;95108.94;;;25.80;71.02
6435;BME280;3250;42.694;23.278;2023-07-16T04:06:31;95095.66;;;25.84;70.75
6435;BME280;3250;42.694;23.278;2023-07-16T04:08:57;95092.44;;;25.96;69.92
6435;BME280;3250;42.694;23.278;2023-07-16T04:11:22;95102.72;;;26.07;68.50
6435;BME280;3250;42.694;23.278;2023-07-16T04:13:47;95095.72;;;26.20;68.99
6435;BME280;3250;42.694;23.278;2023-07-16T04:16:13;95110.09;;;26.43;68.55
6435;BME280;3250;42.694;23.278;2023-07-16T04:18:38;95115.56;;;26.51;67.83
6435;BME280;3250;42.694;23.278;2023-07-16T04:21:04;95065.50;;;26.32;67.66
6435;BME280;3250;42.694;23.278;2023-07-16T04:23:29;95097.41;;;26.65;66.54
6435;BME280;3250;42.694;23.278;2023-07-16T04:29:10;95099.34;;;26.87;66.07
6435;BME280;3250;42.694;23.278;2023-07-16T04:31:35;95117.59;;;27.04;65.01
6435;BME280;3250;42.694;23.278;2023-07-16T04:34:00;95095.84;;;27.09;67.07
6435;BME280;3250;42.694;23.278;2023-07-16T04:36:26;95112.16;;;27.26;65.19
6435;BME280;3250;42.694;23.278;2023-07-16T04:38:51;95131.88;;;27.49;65.79
6435;BME280;3250;42.694;23.278;2023-07-16T04:41:17;95109.81;;;27.56;64.83
6435;BME280;3250;42.694;23.278;2023-07-16T04:43:42;95120.75;;;27.82;63.45
6435;BME280;3250;42.694;23.278;2023-07-16T04:46:08;95132.75;;;28.06;62.67
6435;BME280;3250;42.694;23.278;2023-07-16T04:48:33;95134.97;;;28.04;61.21
6435;BME280;3250;42.694;23.278;2023-07-16T04:50:58;95127.56;;;28.19;61.48
6435;BME280;3250;42.694;23.278;2023-07-16T04:53:24;95133.66;;;28.33;61.66
6435;BME280;3250;42.694;23.278;2023-07-16T04:55:50;95135.91;;;28.65;61.58
6435;BME280;3250;42.694;23.278;2023-07-16T04:58:15;95139.16;;;28.84;58.97
6435;BME280;3250;42.694;23.278;2023-07-16T05:00:41;95109.94;;;28.73;59.49
6435;BME280;3250;42.694;23.278;2023-07-16T05:03:06;95137.72;;;29.04;59.24
6435;BME280;3250;42.694;23.278;2023-07-16T05:05:32;95098.47;;;29.02;59.30
6435;BME280;3250;42.694;23.278;2023-07-16T05:07:57;95124.53;;;29.58;57.10
6435;BME280;3250;42.694;23.278;2023-07-16T05:10:23;95141.81;;;30.00;56.76
6435;BME280;3250;42.694;23.278;2023-07-16T05:12:49;95143.88;;;30.32;56.65
6435;BME280;3250;42.694;23.278;2023-07-16T05:15:15;95138.78;;;30.60;55.19
6435;BME280;3250;42.694;23.278;2023-07-16T05:17:40;95138.22;;;30.88;53.71
6435;BME280;3250;42.694;23.278;2023-07-16T05:20:07;95142.47;;;31.39;53.54
6435;BME280;3250;42.694;23.278;2023-07-16T05:22:33;95111.72;;;31.50;51.66
6435;BME280;3250;42.694;23.278;2023-07-16T05:24:58;95132.13;;;32.02;52.10
6435;BME280;3250;42.694;23.278;2023-07-16T05:27:24;95126.38;;;32.15;49.45
6435;BME280;3250;42.694;23.278;2023-07-16T05:29:49;95146.94;;;32.49;48.54
6435;BME280;3250;42.694;23.278;2023-07-16T05:32:15;95146.25;;;32.77;49.22
6435;BME280;3250;42.694;23.278;2023-07-16T05:34:40;95155.16;;;32.89;47.91
6435;BME280;3250;42.694;23.278;2023-07-16T05:37:05;95155.75;;;32.95;47.29
6435;BME280;3250;42.694;23.278;2023-07-16T05:39:31;95145.28;;;33.25;47.08
6435;BME280;3250;42.694;23.278;2023-07-16T05:41:56;95142.00;;;33.47;46.22
6435;BME280;3250;42.694;23.278;2023-07-16T05:44:22;95136.34;;;33.84;45.88
6435;BME280;3250;42.694;23.278;2023-07-16T05:46:47;95140.53;;;33.65;45.00
6435;BME280;3250;42.694;23.278;2023-07-16T05:49:13;95168.56;;;33.62;46.00
6435;BME280;3250;42.694;23.278;2023-07-16T05:51:38;95133.41;;;33.05;46.00
6435;BME280;3250;42.694;23.278;2023-07-16T05:54:04;95161.84;;;33.60;46.63
6435;BME280;3250;42.694;23.278;2023-07-16T05:56:29;95144.44;;;32.32;47.38
6435;BME280;3250;42.694;23.278;2023-07-16T05:58:54;95165.66;;;32.75;47.13
6435;BME280;3250;42.694;23.278;2023-07-16T06:01:20;95154.41;;;33.17;47.73
6435;BME280;3250;42.694;23.278;2023-07-16T06:03:45;95149.72;;;33.29;46.02
6435;BME280;3250;42.694;23.278;2023-07-16T06:06:11;95167.25;;;33.16;46.34
6435;BME280;3250;42.694;23.278;2023-07-16T06:08:36;95174.75;;;33.19;46.66
6435;BME280;3250;42.694;23.278;2023-07-16T06:11:01;95158.69;;;33.30;47.79
6435;BME280;3250;42.694;23.278;2023-07-16T06:13:29;95166.03;;;33.42;47.02
6435;BME280;3250;42.694;23.278;2023-07-16T06:15:54;95166.84;;;33.42;48.36
6435;BME280;3250;42.694;23.278;2023-07-16T06:18:19;95168.72;;;33.26;46.38
6435;BME280;3250;42.694;23.278;2023-07-16T06:20:46;95169.34;;;33.07;46.41
6435;BME280;3250;42.694;23.278;2023-07-16T06:23:12;95162.59;;;33.17;47.56
6435;BME280;3250;42.694;23.278;2023-07-16T06:25:38;95148.53;;;33.03;49.21
6435;BME280;3250;42.694;23.278;2023-07-16T06:28:05;95168.06;;;33.05;47.29
6435;BME280;3250;42.694;23.278;2023-07-16T06:30:31;95159.34;;;32.99;47.80
6435;BME280;3250;42.694;23.278;2023-07-16T06:32:58;95160.44;;;32.46;48.90
6435;BME280;3250;42.694;23.278;2023-07-16T06:35:23;95155.34;;;32.32;49.86
6435;BME280;3250;42.694;23.278;2023-07-16T06:37:49;95159.88;;;32.40;48.62
6435;BME280;3250;42.694;23.278;2023-07-16T06:40:14;95152.38;;;32.37;47.67
6435;BME280;3250;42.694;23.278;2023-07-16T06:42:40;95138.09;;;32.16;48.80
6435;BME280;3250;42.694;23.278;2023-07-16T06:45:05;95158.75;;;32.29;48.35
6435;BME280;3250;42.694;23.278;2023-07-16T06:47:31;95156.63;;;31.65;49.80
6435;BME280;3250;42.694;23.278;2023-07-16T06:49:56;95135.50;;;31.62;51.28
6435;BME280;3250;42.694;23.278;2023-07-16T06:52:23;95149.94;;;31.75;50.18
6435;BME280;3250;42.694;23.278;2023-07-16T06:54:49;95130.72;;;31.26;50.40
6435;BME280;3250;42.694;23.278;2023-07-16T06:57:15;95146.41;;;31.29;52.52
6435;BME280;3250;42.694;23.278;2023-07-16T06:59:40;95153.34;;;31.39;52.47
6435;BME280;3250;42.694;23.278;2023-07-16T07:02:06;95132.06;;;31.20;53.70
6435;BME280;3250;42.694;23.278;2023-07-16T07:04:31;95156.03;;;31.27;51.85
6435;BME280;3250;42.694;23.278;2023-07-16T07:06:57;95135.72;;;30.83;52.28
6435;BME280;3250;42.694;23.278;2023-07-16T07:09:22;95132.28;;;30.94;51.62
6435;BME280;3250;42.694;23.278;2023-07-16T07:11:48;95132.19;;;31.24;53.24
6435;BME280;3250;42.694;23.278;2023-07-16T07:14:13;95143.69;;;31.74;52.18
6435;BME280;3250;42.694;23.278;2023-07-16T07:16:38;95134.88;;;32.02;51.80
6435;BME280;3250;42.694;23.278;2023-07-16T07:19:05;95145.78;;;32.26;50.86
6435;BME280;3250;42.694;23.278;2023-07-16T07:21:31;95147.31;;;31.66;52.71
6435;BME280;3250;42.694;23.278;2023-07-16T07:23:56;95152.00;;;31.45;51.90
6435;BME280;3250;42.694;23.278;2023-07-16T07:26:22;95148.78;;;31.64;51.83
6435;BME280;3250;42.694;23.278;2023-07-16T07:28:47;95143.84;;;31.90;50.82
6435;BME280;3250;42.694;23.278;2023-07-16T07:31:13;95146.56;;;31.90;52.25
6435;BME280;3250;42.694;23.278;2023-07-16T07:33:38;95125.78;;;31.98;52.38
6435;BME280;3250;42.694;23.278;2023-07-16T07:36:04;95126.38;;;32.15;51.37
6435;BME280;3250;42.694;23.278;2023-07-16T07:38:29;95145.22;;;32.69;52.67
6435;BME280;3250;42.694;23.278;2023-07-16T07:40:55;95146.97;;;32.89;49.86
6435;BME280;3250;42.694;23.278;2023-07-16T07:43:20;95128.06;;;32.56;49.94
6435;BME280;3250;42.694;23.278;2023-07-16T07:45:46;95140.44;;;32.66;48.34
6435;BME280;3250;42.694;23.278;2023-07-16T07:48:11;95137.41;;;32.95;49.56
6435;BME280;3250;42.694;23.278;2023-07-16T07:50:36;95140.75;;;33.29;49.49
6435;BME280;3250;42.694;23.278;2023-07-16T07:53:02;95139.09;;;33.12;49.23
6435;BME280;3250;42.694;23.278;2023-07-16T07:55:27;95149.06;;;33.20;49.81
6435;BME280;3250;42.694;23.278;2023-07-16T07:57:53;95130.66;;;32.77;47.79
6435;BME280;3250;42.694;23.278;2023-07-16T08:00:18;95121.34;;;32.66;48.91
6435;BME280;3250;42.694;23.278;2023-07-16T08:02:44;95126.22;;;32.85;49.22
6435;BME280;3250;42.694;23.278;2023-07-16T08:05:09;95129.25;;;33.23;48.59
6435;BME280;3250;42.694;23.278;2023-07-16T08:07:35;95130.63;;;33.29;48.00
6435;BME280;3250;42.694;23.278;2023-07-16T08:10:00;95143.81;;;33.27;47.90
6435;BME280;3250;42.694;23.278;2023-07-16T08:12:25;95134.59;;;32.92;46.97
6435;BME280;3250;42.694;23.278;2023-07-16T08:14:51;95139.00;;;32.96;48.76
6435;BME280;3250;42.694;23.278;2023-07-16T08:17:16;95134.00;;;32.98;48.83
6435;BME280;3250;42.694;23.278;2023-07-16T08:19:41;95138.72;;;33.14;47.69
6435;BME280;3250;42.694;23.278;2023-07-16T08:22:07;95129.53;;;33.06;49.37
6435;BME280;3250;42.694;23.278;2023-07-16T08:24:32;95121.75;;;33.20;49.00
6435;BME280;3250;42.694;23.278;2023-07-16T08:26:58;95120.75;;;33.41;47.50
6435;BME280;3250;42.694;23.278;2023-07-16T08:29:23;95130.06;;;33.67;47.25
6435;BME280;3250;42.694;23.278;2023-07-16T08:31:48;95108.50;;;33.34;46.39
6435;BME280;3250;42.694;23.278;2023-07-16T08:34:14;95143.41;;;33.41;46.35
6435;BME280;3250;42.694;23.278;2023-07-16T08:36:39;95114.75;;;33.07;47.69
6435;BME280;3250;42.694;23.278;2023-07-16T08:39:05;95141.72;;;33.37;49.50
6435;BME280;3250;42.694;23.278;2023-07-16T08:41:31;95124.91;;;33.34;48.03
6435;BME280;3250;42.694;23.278;2023-07-16T08:43:56;95126.66;;;33.15;51.39
6435;BME280;3250;42.694;23.278;2023-07-16T08:46:22;95085.66;;;32.99;49.28
6435;BME280;3250;42.694;23.278;2023-07-16T08:48:48;95134.03;;;33.14;50.15
6435;BME280;3250;42.694;23.278;2023-07-16T08:51:14;95116.56;;;32.75;48.62
6435;BME280;3250;42.694;23.278;2023-07-16T08:53:40;95110.13;;;32.43;48.94
6435;BME280;3250;42.694;23.278;2023-07-16T08:56:05;95095.03;;;32.34;48.23
6435;BME280;3250;42.694;23.278;2023-07-16T08:58:31;95096.72;;;32.50;49.63
6435;BME280;3250;42.694;23.278;2023-07-16T09:00:58;95130.41;;;32.82;49.03
6435;BME280;3250;42.694;23.278;2023-07-16T09:03:24;95130.94;;;32.88;49.59
6435;BME280;3250;42.694;23.278;2023-07-16T09:05:49;95106.25;;;32.96;49.34
6435;BME280;3250;42.694;23.278;2023-07-16T09:08:15;95128.13;;;32.84;49.34
6435;BME280;3250;42.694;23.278;2023-07-16T09:10:41;95126.47;;;33.08;50.47
6435;BME280;3250;42.694;23.278;2023-07-16T09:13:07;95117.94;;;33.09;51.84
6435;BME280;3250;42.694;23.278;2023-07-16T09:15:33;95117.47;;;33.07;47.92
6435;BME280;3250;42.694;23.278;2023-07-16T09:17:59;95121.22;;;32.75;48.30
6435;BME280;3250;42.694;23.278;2023-07-16T09:20:25;95096.00;;;32.78;50.20
6435;BME280;3250;42.694;23.278;2023-07-16T09:22:56;95098.97;;;33.01;49.21
6435;BME280;3250;42.694;23.278;2023-07-16T09:25:29;95101.06;;;33.19;48.45
6435;BME280;3250;42.694;23.278;2023-07-16T09:27:55;95110.63;;;33.13;47.36
6435;BME280;3250;42.694;23.278;2023-07-16T09:30:20;95091.31;;;32.78;47.99
6435;BME280;3250;42.694;23.278;2023-07-16T09:32:46;95096.72;;;32.90;51.04
6435;BME280;3250;42.694;23.278;2023-07-16T09:35:16;95114.84;;;33.11;47.85
6435;BME280;3250;42.694;23.278;2023-07-16T09:37:42;95089.31;;;33.03;47.53
6435;BME280;3250;42.694;23.278;2023-07-16T09:40:10;95084.84;;;33.11;50.14
6435;BME280;3250;42.694;23.278;2023-07-16T09:42:38;95120.31;;;33.39;48.27
6435;BME280;3250;42.694;23.278;2023-07-16T09:45:05;95098.22;;;33.16;47.63
6435;BME280;3250;42.694;23.278;2023-07-16T09:47:31;95103.59;;;33.12;50.06
6435;BME280;3250;42.694;23.278;2023-07-16T09:49:57;95088.13;;;33.04;48.37
6435;BME280;3250;42.694;23.278;2023-07-16T09:52:24;95097.34;;;32.72;49.21
6435;BME280;3250;42.694;23.278;2023-07-16T09:54:52;95084.28;;;32.65;51.70
6435;BME280;3250;42.694;23.278;2023-07-16T09:57:20;95095.59;;;32.51;48.27
6435;BME280;3250;42.694;23.278;2023-07-16T09:59:47;95080.03;;;32.28;49.89
6435;BME280;3250;42.694;23.278;2023-07-16T10:02:13;95100.81;;;31.83;51.74
6435;BME280;3250;42.694;23.278;2023-07-16T10:04:39;95094.22;;;31.84;50.82
6435;BME280;3250;42.694;23.278;2023-07-16T10:07:05;95073.91;;;31.94;52.75
6435;BME280;3250;42.694;23.278;2023-07-16T10:09:38;95063.22;;;32.13;56.18
6435;BME280;3250;42.694;23.278;2023-07-16T10:12:12;95082.31;;;32.38;53.72
6435;BME280;3250;42.694;23.278;2023-07-16T10:14:43;95081.44;;;32.61;55.02
6435;BME280;3250;42.694;23.278;2023-07-16T10:17:12;95077.91;;;32.85;52.57
6435;BME280;3250;42.694;23.278;2023-07-16T10:20:07;95084.66;;;33.04;50.22
6435;BME280;3250;42.694;23.278;2023-07-16T10:22:46;95073.81;;;33.07;49.11
6435;BME280;3250;42.694;23.278;2023-07-16T10:27:44;95044.38;;;32.85;49.75
6435;BME280;3250;42.694;23.278;2023-07-16T10:30:10;95051.38;;;32.46;49.01
6435;BME280;3250;42.694;23.278;2023-07-16T10:32:36;95045.88;;;32.06;49.18
6435;BME280;3250;42.694;23.278;2023-07-16T10:35:03;95055.19;;;32.05;52.37
6435;BME280;3250;42.694;23.278;2023-07-16T10:37:29;95040.44;;;31.81;49.18
6435;BME280;3250;42.694;23.278;2023-07-16T10:39:56;95062.44;;;32.01;51.04
6435;BME280;3250;42.694;23.278;2023-07-16T10:42:27;95050.88;;;32.04;52.25
6435;BME280;3250;42.694;23.278;2023-07-16T10:44:54;95061.28;;;32.26;51.97
6435;BME280;3250;42.694;23.278;2023-07-16T10:47:33;95059.94;;;32.32;51.65
6435;BME280;3250;42.694;23.278;2023-07-16T10:49:59;95071.31;;;32.34;49.39
6435;BME280;3250;42.694;23.278;2023-07-16T10:52:26;95047.25;;;32.24;51.88
6435;BME280;3250;42.694;23.278;2023-07-16T10:54:51;95063.22;;;32.38;52.57
6435;BME280;3250;42.694;23.278;2023-07-16T10:57:23;95059.69;;;32.49;50.26
6435;BME280;3250;42.694;23.278;2023-07-16T10:59:50;95043.13;;;32.42;49.63
6435;BME280;3250;42.694;23.278;2023-07-16T11:02:17;95058.97;;;32.52;49.89
6435;BME280;3250;42.694;23.278;2023-07-16T11:04:44;95046.59;;;32.55;49.06
6435;BME280;3250;42.694;23.278;2023-07-16T11:07:11;95041.94;;;32.55;48.70
6435;BME280;3250;42.694;23.278;2023-07-16T11:09:47;95048.72;;;32.61;47.61
6435;BME280;3250;42.694;23.278;2023-07-16T11:12:16;95049.63;;;32.66;48.72
6435;BME280;3250;42.694;23.278;2023-07-16T11:14:43;95036.66;;;32.63;51.15
6435;BME280;3250;42.694;23.278;2023-07-16T11:17:10;95043.38;;;32.77;47.85
6435;BME280;3250;42.694;23.278;2023-07-16T11:19:37;95035.06;;;32.74;49.88
6435;BME280;3250;42.694;23.278;2023-07-16T11:22:04;95021.56;;;32.65;48.34
6435;BME280;3250;42.694;23.278;2023-07-16T11:24:56;95043.31;;;32.89;47.20
6435;BME280;3250;42.694;23.278;2023-07-16T11:27:23;95038.09;;;32.84;47.96
6435;BME280;3250;42.694;23.278;2023-07-16T11:29:56;95027.56;;;32.71;46.38
6435;BME280;3250;42.694;23.278;2023-07-16T11:32:36;95027.00;;;32.65;46.57
6435;BME280;3250;42.694;23.278;2023-07-16T11:35:04;95034.97;;;32.70;49.26
6435;BME280;3250;42.694;23.278;2023-07-16T11:37:32;95033.16;;;32.74;49.85
6435;BME280;3250;42.694;23.278;2023-07-16T11:40:08;95030.28;;;32.83;47.94
6435;BME280;3250;42.694;23.278;2023-07-16T11:42:38;95022.97;;;32.87;47.20
6435;BME280;3250;42.694;23.278;2023-07-16T11:45:05;95023.69;;;33.00;47.95
6435;BME280;3250;42.694;23.278;2023-07-16T11:47:39;94985.03;;;32.82;48.50
6435;BME280;3250;42.694;23.278;2023-07-16T11:50:05;95001.41;;;32.97;50.41
6435;BME280;3250;42.694;23.278;2023-07-16T11:52:31;95020.66;;;33.17;48.73
6435;BME280;3250;42.694;23.278;2023-07-16T11:54:58;95015.53;;;33.15;49.06
6435;BME280;3250;42.694;23.278;2023-07-16T11:57:29;95020.16;;;33.27;49.22
6435;BME280;3250;42.694;23.278;2023-07-16T11:59:55;95018.59;;;33.26;47.29
6435;BME280;3250;42.694;23.278;2023-07-16T12:02:21;94998.28;;;33.11;44.86
6435;BME280;3250;42.694;23.278;2023-07-16T12:04:47;95006.09;;;33.13;45.51
6435;BME280;3250;42.694;23.278;2023-07-16T12:07:12;94994.94;;;33.02;45.51
6435;BME280;3250;42.694;23.278;2023-07-16T12:09:38;95000.91;;;33.08;46.28
6435;BME280;3250;42.694;23.278;2023-07-16T12:12:03;95002.84;;;33.07;50.20
6435;BME280;3250;42.694;23.278;2023-07-16T12:14:29;94935.63;;;32.71;46.16
6435;BME280;3250;42.694;23.278;2023-07-16T12:16:55;95014.78;;;33.30;45.36
6435;BME280;3250;42.694;23.278;2023-07-16T12:19:22;95020.06;;;33.23;45.13
6435;BME280;3250;42.694;23.278;2023-07-16T12:21:47;94997.84;;;33.09;44.61
6435;BME280;3250;42.694;23.278;2023-07-16T12:24:13;95011.09;;;33.23;44.36
6435;BME280;3250;42.694;23.278;2023-07-16T12:26:38;95011.72;;;33.04;44.50
6435;BME280;3250;42.694;23.278;2023-07-16T12:29:04;94998.41;;;32.87;43.10
6435;BME280;3250;42.694;23.278;2023-07-16T12:31:33;94966.66;;;32.67;44.84
6435;BME280;3250;42.694;23.278;2023-07-16T12:33:59;95003.28;;;32.93;45.30
6435;BME280;3250;42.694;23.278;2023-07-16T12:36:27;95001.06;;;32.99;44.84
6435;BME280;3250;42.694;23.278;2023-07-16T12:38:53;95007.00;;;33.01;43.41
6435;BME280;3250;42.694;23.278;2023-07-16T12:41:18;94998.00;;;33.01;44.47
6435;BME280;3250;42.694;23.278;2023-07-16T12:43:44;94999.09;;;33.12;46.80
6435;BME280;3250;42.694;23.278;2023-07-16T12:46:09;94998.06;;;33.32;48.49
6435;BME280;3250;42.694;23.278;2023-07-16T12:48:34;94996.66;;;33.54;47.53
6435;BME280;3250;42.694;23.278;2023-07-16T12:51:00;94989.59;;;33.68;44.89
6435;BME280;3250;42.694;23.278;2023-07-16T12:53:26;94991.47;;;33.80;45.45
6435;BME280;3250;42.694;23.278;2023-07-16T12:55:52;94991.47;;;33.80;41.49
6435;BME280;3250;42.694;23.278;2023-07-16T12:58:18;94988.88;;;33.71;42.37
6435;BME280;3250;42.694;23.278;2023-07-16T13:00:43;94979.66;;;33.60;42.26
6435;BME280;3250;42.694;23.278;2023-07-16T13:03:09;94985.09;;;33.76;41.98
6435;BME280;3250;42.694;23.278;2023-07-16T13:05:37;94973.53;;;33.83;43.63
6435;BME280;3250;42.694;23.278;2023-07-16T13:08:03;94979.19;;;33.90;41.44
6435;BME280;3250;42.694;23.278;2023-07-16T13:10:28;94969.13;;;33.94;43.14
6435;BME280;3250;42.694;23.278;2023-07-16T13:12:54;94968.06;;;33.98;42.11
6435;BME280;3250;42.694;23.278;2023-07-16T13:15:19;94962.31;;;34.03;42.96